Main page
METAR-TAF:

METAR-TAF

Airports :

Farnborough, England

Farnborough Airport

latitude: 51-17N, longitude: 000-46W, elevation: 65 m

Current weather observation

The report was made 22 minutes ago, at 08:20 UTC
Wind 4 kt from the West, varying between West/Southwest and Northwest
Temperature 16°C
Humidity 77%
Pressure 1021 hPa
Visibility 10 km or more
Few clouds at a height of 3800 ft

METAR: EGLF 230820Z 27004KT 240V320 9999 FEW038 16/12 Q1021

Time: 09:42 (08:42 UTC)

Forecast

The report was made 41 minutes ago, at 08:01 UTC
Forecast valid from 23 at 09 UTC to 23 at 18 UTC
Wind 9 kt from the West
Visibility 10 km or more
Few clouds at a height of 3000 ft

TAF: EGLF 230801Z 2309/2318 26009KT 9999 FEW030

Weather observations and forecasts of more than 4000 airports (METAR and TAF reports).

The available stations are represented by yellow and red dots on the map.

Hover mouse over dot to see the name of the station.

Then click to see weather observations and forecasts.

To change the map : click on the green buttons with a black cross to zoom in, on the green button with a dash to zoom out, or on the green arrows for adjacent maps.


METAR-TAF: